Meniu

AB meteo

EYSA 55 53 38N 023 23 42E

Hello!

Welcome to AB meteo!
Here you can find links to actual weather data and weather forecast.

Posted by moose 2009 January 13 Tuesday 23:40:26

METAR

534330465 6 EYSA 240850Z 30012KT 9999 OVC010 02/00 Q1018 R32R/29//95 R32L/29//95 GRN NOSIG

TAF

729841849 7 TAF EYSA 240500Z 2406/2415 29014KT 5000 BR SCT007 OVC012 TEMPO 2406/2410 BKN005